Time;durP1;ratioP1;P1;durP2;ratioP2;P2;SDS_P1;SDS_P2;PMS_P1;PMS_P2;Temp;Humidity;BMP_temperature;BMP_pressure;BME280_temperature;BME280_humidity;BME280_pressure;Samples;Min_cycle;Max_cycle;Signal;HPM_P1;HPM_P2
2021/09/22 00:00:23;;;;;;;3.90;3.13;;;;;;;18.70;57.67;103040.59;5023183;28;20044;-75
2021/09/22 00:02:49;;;;;;;2.85;2.65;;;;;;;18.68;57.49;103046.88;5008008;28;20017;-76
2021/09/22 00:05:14;;;;;;;5.05;4.65;;;;;;;18.66;57.53;103038.09;5000495;28;20050;-75
2021/09/22 00:07:40;;;;;;;1.73;1.63;;;;;;;18.64;57.89;103040.81;5020382;28;20134;-76
2021/09/22 00:10:07;;;;;;;3.67;1.80;;;;;;;18.68;57.31;103041.56;4984778;28;20045;-75
2021/09/22 00:12:32;;;;;;;2.72;2.53;;;;;;;18.67;57.40;103045.16;4997571;28;20084;-76
2021/09/22 00:14:58;;;;;;;1.75;1.65;;;;;;;18.72;57.31;103043.16;5005129;28;20041;-76
2021/09/22 00:17:23;;;;;;;1.58;1.50;;;;;;;18.65;57.44;103033.75;5012000;28;20021;-76
2021/09/22 00:19:49;;;;;;;2.65;2.10;;;;;;;18.66;57.26;103031.00;5013119;28;20375;-75
2021/09/22 00:22:14;;;;;;;3.58;3.28;;;;;;;18.64;57.43;103042.63;5013834;28;20042;-75
2021/09/22 00:24:39;;;;;;;3.50;3.13;;;;;;;18.65;57.50;103036.38;5012187;28;20041;-75
2021/09/22 00:27:05;;;;;;;2.22;1.65;;;;;;;18.64;57.42;103046.13;4998779;28;20033;-77
2021/09/22 00:29:30;;;;;;;1.67;1.58;;;;;;;18.61;57.60;103043.63;5032651;28;20407;-77
2021/09/22 00:31:56;;;;;;;1.60;1.50;;;;;;;18.60;57.53;103039.22;5011344;28;20036;-78
2021/09/22 00:34:21;;;;;;;1.50;1.40;;;;;;;18.67;57.49;103032.75;5032914;28;20325;-78
2021/09/22 00:36:48;;;;;;;3.20;1.33;;;;;;;18.59;57.59;103041.00;5029042;28;20033;-78
2021/09/22 00:39:14;;;;;;;1.70;1.60;;;;;;;18.46;57.93;103038.88;5018967;28;20018;-78
2021/09/22 00:41:40;;;;;;;1.63;1.42;;;;;;;18.56;57.40;103042.91;5017487;28;20025;-78
2021/09/22 00:44:05;;;;;;;1.60;1.45;;;;;;;18.56;57.55;103038.47;5050263;28;20075;-78
2021/09/22 00:46:30;;;;;;;1.40;1.30;;;;;;;18.60;57.61;103037.41;5017868;28;20031;-78
2021/09/22 00:48:56;;;;;;;4.30;1.38;;;;;;;18.53;57.53;103041.25;5035734;28;20096;-78
2021/09/22 00:51:21;;;;;;;1.60;1.50;;;;;;;18.51;57.98;103040.44;5035690;28;20041;-78
2021/09/22 00:53:47;;;;;;;2.78;1.70;;;;;;;18.47;57.92;103044.16;5002251;28;20051;-78
2021/09/22 00:56:12;;;;;;;2.40;2.13;;;;;;;18.49;57.79;103042.28;5018636;28;20033;-78
2021/09/22 00:58:38;;;;;;;2.05;1.55;;;;;;;18.47;57.79;103033.53;4999840;28;20034;-78
2021/09/22 01:01:03;;;;;;;1.63;1.52;;;;;;;18.52;57.59;103034.22;5027112;28;20027;-78
2021/09/22 01:03:29;;;;;;;4.95;2.78;;;;;;;18.52;57.73;103033.34;5003800;28;20041;-79
2021/09/22 01:05:54;;;;;;;1.83;1.23;;;;;;;18.48;57.77;103034.38;5040300;28;20029;-78
2021/09/22 01:08:20;;;;;;;2.10;1.67;;;;;;;18.54;57.50;103035.03;5006829;28;20040;-78
2021/09/22 01:10:46;;;;;;;1.52;1.42;;;;;;;18.46;57.90;103029.13;4993695;28;20342;-78
2021/09/22 01:13:14;;;;;;;1.80;1.70;;;;;;;18.46;57.68;103030.94;5007054;28;20038;-78
2021/09/22 01:15:42;;;;;;;;;;;;;;;18.48;57.92;103032.63;5007987;28;20029;-78
2021/09/22 01:18:12;;;;;;;1.60;1.50;;;;;;;18.52;57.43;103034.22;5017132;28;19921;-78
2021/09/22 01:20:37;;;;;;;1.77;1.58;;;;;;;18.51;57.88;103024.53;4991811;28;20033;-78
2021/09/22 01:23:03;;;;;;;1.92;1.35;;;;;;;18.40;57.99;103014.31;4991117;28;20120;-78
2021/09/22 01:25:28;;;;;;;1.40;1.30;;;;;;;18.46;57.72;103021.19;4997404;28;20207;-78
2021/09/22 01:27:56;;;;;;;1.50;1.40;;;;;;;18.39;58.12;103014.38;4990581;28;20033;-78
2021/09/22 01:30:21;;;;;;;2.47;1.73;;;;;;;18.38;58.04;103015.31;4998402;28;20034;-79
2021/09/22 01:32:55;;;;;;;1.60;1.50;;;;;;;18.38;57.98;103008.22;5008962;28;20064;-78
2021/09/22 01:35:20;;;;;;;1.60;1.50;;;;;;;18.45;57.80;103008.84;4984959;28;20040;-78
2021/09/22 01:37:46;;;;;;;2.63;1.80;;;;;;;18.37;57.99;103013.59;5033422;28;20046;-78
2021/09/22 01:40:12;;;;;;;1.30;1.20;;;;;;;18.33;58.16;103011.97;5007999;28;20076;-78
2021/09/22 01:42:37;;;;;;;1.60;1.50;;;;;;;18.42;57.83;103014.28;4997892;28;20076;-78
2021/09/22 01:45:07;;;;;;;1.60;1.50;;;;;;;18.37;57.90;103017.13;5014017;28;20026;-78
2021/09/22 01:47:32;;;;;;;1.60;1.50;;;;;;;18.35;57.93;103013.63;5021811;28;20096;-78
2021/09/22 01:50:17;;;;;;;1.40;1.30;;;;;;;18.34;58.19;103021.69;5029705;28;20049;-78
2021/09/22 01:52:43;;;;;;;1.60;1.50;;;;;;;18.42;57.94;103019.56;5014058;28;20034;-78
2021/09/22 01:55:09;;;;;;;1.50;1.40;;;;;;;18.37;58.12;103019.78;5013368;28;20080;-78
2021/09/22 01:57:35;;;;;;;1.17;1.17;;;;;;;18.36;58.08;103018.03;5013140;28;20037;-78
2021/09/22 02:00:00;;;;;;;1.48;1.38;;;;;;;18.28;58.30;103019.25;5013645;28;20072;-78
2021/09/22 02:02:26;;;;;;;1.70;1.60;;;;;;;18.26;58.32;103016.66;4999851;28;20021;-78
2021/09/22 02:04:51;;;;;;;1.48;1.38;;;;;;;18.31;58.21;103019.13;4994019;28;20028;-78
2021/09/22 02:07:17;;;;;;;2.20;1.40;;;;;;;18.25;58.15;103014.94;5012946;28;20045;-78
2021/09/22 02:09:42;;;;;;;2.22;1.45;;;;;;;18.18;58.52;103016.09;5016445;28;20199;-78
2021/09/22 02:12:08;;;;;;;4.50;3.70;;;;;;;18.19;58.36;103021.34;5050453;28;20037;-78
2021/09/22 02:14:33;;;;;;;1.50;1.40;;;;;;;18.25;58.07;103011.44;4988368;28;20021;-78
2021/09/22 02:16:59;;;;;;;1.40;1.30;;;;;;;18.20;58.30;103009.78;5031296;28;20026;-78
2021/09/22 02:19:24;;;;;;;1.38;1.27;;;;;;;18.17;58.46;103011.69;5007506;28;20017;-78
2021/09/22 02:21:50;;;;;;;2.88;2.67;;;;;;;18.23;58.16;103006.19;4996792;28;20399;-78
2021/09/22 02:24:15;;;;;;;1.25;1.15;;;;;;;18.14;58.32;102999.44;4996784;28;20253;-79
2021/09/22 02:26:40;;;;;;;4.45;4.15;;;;;;;18.18;58.30;102990.44;5042576;28;20036;-79
2021/09/22 02:29:06;;;;;;;5.05;4.65;;;;;;;18.13;58.38;102995.03;5007638;28;20033;-79
2021/09/22 02:31:31;;;;;;;1.63;1.52;;;;;;;18.20;58.40;102993.88;4996364;28;20116;-79
2021/09/22 02:33:57;;;;;;;4.72;4.18;;;;;;;18.19;58.67;102996.59;5018201;28;20033;-79
2021/09/22 02:36:23;;;;;;;2.85;2.67;;;;;;;18.20;57.96;102993.88;4996705;28;20227;-79
2021/09/22 02:38:48;;;;;;;1.60;1.50;;;;;;;18.15;58.39;102985.25;4999303;28;20029;-79
2021/09/22 02:41:13;;;;;;;3.00;1.40;;;;;;;18.13;58.27;102989.75;5000029;28;20059;-79
2021/09/22 02:43:39;;;;;;;2.42;2.28;;;;;;;18.13;58.42;102995.03;5012679;28;20064;-79
2021/09/22 02:46:04;;;;;;;1.80;1.55;;;;;;;18.14;58.60;102995.94;5032560;28;20040;-79
2021/09/22 02:48:30;;;;;;;3.78;3.47;;;;;;;18.10;58.29;102991.66;5046957;28;20067;-79
2021/09/22 02:50:56;;;;;;;1.70;1.40;;;;;;;18.14;58.27;102990.63;4996965;28;20037;-79
2021/09/22 02:53:21;;;;;;;1.70;1.60;;;;;;;18.07;58.59;102984.69;5046702;28;20052;-79
2021/09/22 02:55:46;;;;;;;4.05;3.50;;;;;;;18.17;58.09;102990.50;4994281;28;20044;-80
2021/09/22 02:58:12;;;;;;;3.72;1.63;;;;;;;18.11;58.22;102988.94;4996259;28;20089;-80
2021/09/22 03:00:37;;;;;;;2.60;2.40;;;;;;;18.05;58.35;102983.88;5022219;28;20045;-79
2021/09/22 03:03:03;;;;;;;5.38;4.95;;;;;;;18.03;58.51;102985.75;5010146;28;20244;-80
2021/09/22 03:05:29;;;;;;;4.75;3.65;;;;;;;18.03;58.57;102985.75;5025408;28;20060;-80
2021/09/22 03:07:54;;;;;;;1.50;1.40;;;;;;;17.95;58.50;102982.50;4993525;28;20113;-80
2021/09/22 03:10:20;;;;;;;4.78;4.47;;;;;;;18.06;58.47;102977.63;5012167;28;20044;-80
2021/09/22 03:12:46;;;;;;;6.00;5.57;;;;;;;18.08;58.33;102977.59;5029408;28;20378;-80
2021/09/22 03:15:12;;;;;;;5.50;5.00;;;;;;;18.06;58.27;102968.84;5029337;28;20025;-80
2021/09/22 03:17:37;;;;;;;6.38;5.88;;;;;;;18.07;58.13;102971.44;5029358;28;20329;-80
2021/09/22 03:20:03;;;;;;;5.88;5.38;;;;;;;17.96;58.45;102963.88;5029797;28;20037;-80
2021/09/22 03:22:29;;;;;;;6.03;5.53;;;;;;;17.94;58.48;102960.44;4994501;28;20351;-79
2021/09/22 03:24:54;;;;;;;5.38;4.85;;;;;;;17.97;58.29;102960.31;5009839;28;20172;-80
2021/09/22 03:27:19;;;;;;;5.25;4.85;;;;;;;17.92;58.50;102969.34;4993188;28;20049;-80
2021/09/22 03:29:45;;;;;;;1.45;1.35;;;;;;;18.04;58.26;102966.22;4993376;28;20564;-79
2021/09/22 03:32:10;;;;;;;3.38;3.17;;;;;;;17.96;58.37;102963.88;5009917;28;20036;-80
2021/09/22 03:34:36;;;;;;;1.75;1.65;;;;;;;17.88;58.49;102965.09;5013838;28;20033;-79
2021/09/22 03:37:01;;;;;;;3.33;3.03;;;;;;;18.00;58.27;102960.19;5012436;28;20022;-79
2021/09/22 03:39:26;;;;;;;3.55;3.35;;;;;;;17.95;58.31;102953.34;5044409;28;20030;-80
2021/09/22 03:41:52;;;;;;;1.90;1.80;;;;;;;17.93;58.52;102963.13;5023683;28;20072;-80
2021/09/22 03:44:17;;;;;;;6.13;5.68;;;;;;;17.93;58.37;102953.38;5027531;28;20051;-80
2021/09/22 03:46:43;;;;;;;5.78;5.18;;;;;;;17.97;58.09;102951.47;5028771;28;20060;-80
2021/09/22 03:49:08;;;;;;;5.60;5.15;;;;;;;17.95;58.00;102956.00;5020211;28;20029;-80
2021/09/22 03:51:34;;;;;;;3.10;2.90;;;;;;;17.78;58.64;102957.47;5013310;28;20064;-79
2021/09/22 03:53:59;;;;;;;6.03;5.53;;;;;;;17.82;58.73;102948.47;5042394;28;20034;-80
2021/09/22 03:56:24;;;;;;;6.47;5.97;;;;;;;17.84;58.58;102951.94;5024064;28;20041;-80
2021/09/22 03:58:50;;;;;;;5.82;5.32;;;;;;;17.84;58.67;102951.06;5007495;28;20653;-80
2021/09/22 04:01:16;;;;;;;2.70;2.53;;;;;;;17.87;58.42;102947.47;5036783;28;20033;-80
2021/09/22 04:03:42;;;;;;;3.38;3.17;;;;;;;17.77;58.51;102949.56;5041777;28;20045;-80
2021/09/22 04:06:07;;;;;;;1.52;1.42;;;;;;;17.82;58.68;102948.47;5038279;28;20385;-80
2021/09/22 04:08:32;;;;;;;3.92;3.63;;;;;;;17.80;58.76;102947.66;5008036;28;20188;-80
2021/09/22 04:10:59;;;;;;;2.47;2.28;;;;;;;17.90;58.29;102953.53;5031026;28;20030;-80
2021/09/22 04:13:24;;;;;;;2.90;2.25;;;;;;;17.92;58.13;102940.19;5027446;28;20041;-80
2021/09/22 04:15:50;;;;;;;1.45;1.30;;;;;;;17.89;58.41;102948.28;4999307;28;20441;-80
2021/09/22 04:18:15;;;;;;;1.40;1.40;;;;;;;17.82;58.44;102944.97;5032828;28;20044;-80
2021/09/22 04:20:40;;;;;;;1.70;1.60;;;;;;;17.81;58.29;102949.41;5040231;28;20025;-79
2021/09/22 04:23:06;;;;;;;1.65;1.42;;;;;;;17.74;59.03;102950.56;5029092;28;20045;-77
2021/09/22 04:25:31;;;;;;;2.63;2.42;;;;;;;17.80;58.95;102952.97;5034105;28;20037;-77
2021/09/22 04:27:57;;;;;;;2.55;2.35;;;;;;;17.81;59.11;102951.19;5044184;28;20056;-77
2021/09/22 04:30:25;;;;;;;6.68;6.07;;;;;;;17.74;59.18;102942.59;5063463;28;20373;-77
2021/09/22 04:32:50;;;;;;;6.68;6.03;;;;;;;17.75;59.58;102946.97;5008596;28;20040;-78
2021/09/22 04:35:15;;;;;;;4.25;3.45;;;;;;;17.81;59.56;102951.19;5024551;28;20361;-78
2021/09/22 04:37:41;;;;;;;10.55;5.65;;;;;;;17.80;60.17;102949.47;5007808;28;20033;-78
2021/09/22 04:40:08;;;;;;;6.93;3.10;;;;;;;17.81;59.85;102960.00;5020779;28;20062;-80
2021/09/22 04:42:33;;;;;;;9.02;6.38;;;;;;;17.57;60.68;102956.50;5019312;28;20283;-78
2021/09/22 04:44:59;;;;;;;11.52;8.70;;;;;;;17.77;60.51;102957.50;5001647;28;20242;-78
2021/09/22 04:47:24;;;;;;;12.20;8.40;;;;;;;17.66;60.61;102957.91;5007250;28;20337;-78
2021/09/22 04:49:49;;;;;;;12.05;7.38;;;;;;;17.78;60.83;102959.25;5008324;28;20072;-78
2021/09/22 04:52:15;;;;;;;15.18;7.38;;;;;;;17.69;60.83;102959.59;5007655;28;20284;-78
2021/09/22 04:54:40;;;;;;;12.65;9.25;;;;;;;17.63;61.17;102955.41;5024377;28;20267;-78
2021/09/22 04:57:06;;;;;;;14.52;8.75;;;;;;;17.75;60.88;102962.88;5007515;28;20033;-78
2021/09/22 04:59:31;;;;;;;16.70;7.00;;;;;;;17.67;60.99;102953.50;5007027;28;20051;-78
2021/09/22 05:01:56;;;;;;;15.82;10.20;;;;;;;17.71;60.67;102961.25;5022923;28;20037;-78
2021/09/22 05:04:22;;;;;;;18.70;9.30;;;;;;;17.61;61.24;102967.84;5006677;28;20068;-78
2021/09/22 05:06:47;;;;;;;14.68;8.25;;;;;;;17.69;60.75;102965.75;5023601;28;20333;-77
2021/09/22 05:09:13;;;;;;;13.23;9.27;;;;;;;17.71;60.79;102971.84;5005525;28;20036;-77
2021/09/22 05:11:40;;;;;;;10.48;7.25;;;;;;;17.71;60.35;102965.69;5005850;28;20042;-79
2021/09/22 05:14:05;;;;;;;12.43;7.20;;;;;;;17.71;61.18;102976.31;5005149;28;20045;-76
2021/09/22 05:16:31;;;;;;;9.13;4.90;;;;;;;17.65;61.23;102974.75;5004163;28;20046;-77
2021/09/22 05:18:56;;;;;;;19.13;8.90;;;;;;;17.68;61.11;102969.31;5004694;28;20037;-77
2021/09/22 05:21:21;;;;;;;18.45;7.95;;;;;;;17.72;60.91;102968.31;5005623;28;20204;-77
2021/09/22 05:23:47;;;;;;;15.32;8.93;;;;;;;17.76;61.04;102971.69;4988061;28;20149;-76
2021/09/22 05:26:12;;;;;;;16.45;7.85;;;;;;;17.70;60.93;102972.78;4987737;28;20026;-77
2021/09/22 05:28:38;;;;;;;21.67;6.93;;;;;;;17.69;60.77;102972.84;5005362;28;20336;-76
2021/09/22 05:31:04;;;;;;;13.18;8.43;;;;;;;17.70;61.28;102966.59;4987991;28;20034;-78
2021/09/22 05:33:29;;;;;;;11.15;7.47;;;;;;;17.75;61.00;102964.66;5001736;28;20053;-77
2021/09/22 05:35:54;;;;;;;17.25;6.47;;;;;;;17.73;60.84;102959.41;5007036;28;20056;-77
2021/09/22 05:38:20;;;;;;;14.75;9.15;;;;;;;17.67;61.44;102962.31;5021891;28;20036;-76
2021/09/22 05:40:45;;;;;;;13.10;8.07;;;;;;;17.69;61.20;102955.16;5035308;28;20053;-77
2021/09/22 05:43:13;;;;;;;14.20;5.63;;;;;;;17.70;61.00;102962.19;5025136;28;20060;-77
2021/09/22 05:45:39;;;;;;;13.95;8.73;;;;;;;17.64;61.23;102962.41;4989946;28;20025;-78
2021/09/22 05:48:05;;;;;;;17.88;10.18;;;;;;;17.65;61.19;102967.66;5025592;28;20034;-79
2021/09/22 05:50:30;;;;;;;18.65;9.82;;;;;;;17.60;61.46;102969.59;5005211;28;20030;-79
2021/09/22 05:52:55;;;;;;;17.30;11.68;;;;;;;17.69;61.34;102967.56;5005660;28;20032;-76
2021/09/22 05:55:21;;;;;;;15.45;10.80;;;;;;;17.70;61.40;102967.50;5005229;28;20052;-76
2021/09/22 05:57:46;;;;;;;17.85;6.90;;;;;;;17.73;61.43;102975.31;5005405;28;20315;-78
2021/09/22 06:00:12;;;;;;;16.35;9.02;;;;;;;17.75;61.04;102973.47;5005974;28;20029;-79
2021/09/22 06:02:37;;;;;;;12.73;8.95;;;;;;;17.84;60.87;102970.50;5023799;28;20037;-79
2021/09/22 06:05:03;;;;;;;18.90;9.32;;;;;;;17.76;61.36;102969.91;5008098;28;20222;-79
2021/09/22 06:07:29;;;;;;;12.23;7.90;;;;;;;17.82;61.07;102974.09;5009957;28;20026;-79
2021/09/22 06:09:54;;;;;;;13.07;5.82;;;;;;;17.81;61.24;102975.91;5009354;28;20103;-79
2021/09/22 06:12:20;;;;;;;11.90;8.10;;;;;;;17.84;60.75;102969.63;5025149;28;20040;-79
2021/09/22 06:14:45;;;;;;;10.68;6.90;;;;;;;17.87;60.89;102971.34;5009196;28;20083;-79
2021/09/22 06:17:14;;;;;;;11.93;7.28;;;;;;;17.87;61.21;102973.97;5024802;28;20044;-79
2021/09/22 06:19:39;;;;;;;10.85;4.03;;;;;;;17.89;61.37;102972.13;5014744;28;20026;-79
2021/09/22 06:22:04;;;;;;;12.38;6.97;;;;;;;17.98;60.70;102969.13;5014857;28;20221;-79
2021/09/22 06:24:30;;;;;;;8.18;4.22;;;;;;;18.07;60.81;102965.28;5040230;28;20033;-76
2021/09/22 06:26:55;;;;;;;12.63;5.35;;;;;;;18.21;60.25;102966.47;5041025;28;20286;-79
2021/09/22 06:29:21;;;;;;;17.38;7.45;;;;;;;18.32;60.03;102971.34;5025332;28;20193;-79
2021/09/22 06:31:46;;;;;;;19.17;7.65;;;;;;;18.34;59.92;102966.84;5024754;28;20067;-78
2021/09/22 06:34:12;;;;;;;21.15;7.10;;;;;;;18.40;60.15;102965.72;5010089;28;20244;-77
2021/09/22 06:36:37;;;;;;;24.02;6.68;;;;;;;18.35;59.98;102968.53;4994111;28;20337;-77
2021/09/22 06:39:03;;;;;;;20.60;9.55;;;;;;;18.40;60.29;102965.72;5024322;28;20037;-77
2021/09/22 06:41:30;;;;;;;30.40;7.88;;;;;;;18.44;60.01;102966.47;5040934;28;20042;-77
2021/09/22 06:43:56;;;;;;;19.80;7.70;;;;;;;18.51;60.23;102970.59;5033805;28;20039;-78
2021/09/22 06:46:21;;;;;;;23.25;8.60;;;;;;;18.55;60.15;102974.84;5009371;28;20069;-77
2021/09/22 06:48:46;;;;;;;19.77;8.65;;;;;;;18.59;59.66;102977.31;5027581;28;20124;-77
2021/09/22 06:51:16;;;;;;;17.80;6.75;;;;;;;18.70;59.65;102978.66;5045646;28;20102;-77
2021/09/22 06:53:42;;;;;;;17.20;7.75;;;;;;;18.72;59.70;102977.69;5009226;28;20037;-77
2021/09/22 06:56:07;;;;;;;20.00;7.43;;;;;;;18.83;59.67;102977.28;5037330;28;20300;-77
2021/09/22 06:58:32;;;;;;;23.05;9.77;;;;;;;18.86;59.54;102981.56;5021323;28;20037;-77
2021/09/22 07:00:58;;;;;;;23.30;5.97;;;;;;;19.00;58.98;102979.22;5002748;28;20055;-78
2021/09/22 07:03:23;;;;;;;19.42;5.22;;;;;;;19.15;58.80;102985.66;5014463;28;20067;-78
2021/09/22 07:05:49;;;;;;;21.00;6.80;;;;;;;19.26;58.25;102977.22;5039082;28;20029;-78
2021/09/22 07:08:14;;;;;;;20.17;5.53;;;;;;;19.35;58.07;102972.34;5022750;28;20036;-79
2021/09/22 07:10:40;;;;;;;13.18;5.55;;;;;;;19.42;58.04;102980.06;5021406;28;20051;-79
2021/09/22 07:13:05;;;;;;;16.90;7.53;;;;;;;19.43;58.07;102987.09;5021269;28;20037;-79
2021/09/22 07:15:31;;;;;;;18.65;7.15;;;;;;;19.53;57.44;102983.97;5003346;28;20623;-79
2021/09/22 07:17:56;;;;;;;15.43;5.75;;;;;;;19.62;57.38;102993.34;5021009;28;20040;-79
2021/09/22 07:20:22;;;;;;;16.85;8.18;;;;;;;19.66;57.28;103002.03;5012640;28;20040;-79
2021/09/22 07:22:47;;;;;;;18.38;6.32;;;;;;;19.77;56.95;102997.13;5005979;28;20029;-80
2021/09/22 07:25:13;;;;;;;11.07;4.82;;;;;;;19.84;56.81;102995.06;5040134;28;20022;-80
2021/09/22 07:27:38;;;;;;;14.35;5.88;;;;;;;19.96;56.50;102994.50;5005462;28;20166;-80
2021/09/22 07:30:05;;;;;;;19.35;5.43;;;;;;;20.05;56.25;102986.09;5036928;28;20264;-79
2021/09/22 07:32:31;;;;;;;21.45;5.18;;;;;;;20.19;55.79;102984.56;5028113;28;20045;-80
2021/09/22 07:34:56;;;;;;;12.45;4.97;;;;;;;20.35;55.42;102990.03;5032414;28;20406;-80
2021/09/22 07:37:22;;;;;;;13.00;7.68;;;;;;;20.47;55.15;102986.78;5011005;28;20030;-79
2021/09/22 07:39:47;;;;;;;14.57;5.85;;;;;;;20.55;54.79;102987.25;5050429;28;20029;-80
2021/09/22 07:42:13;;;;;;;12.90;4.90;;;;;;;20.70;54.30;102991.84;5039409;28;20038;-80
2021/09/22 07:44:45;;;;;;;16.98;7.13;;;;;;;20.85;53.99;102995.56;5019602;28;20127;-80
2021/09/22 07:47:13;;;;;;;12.82;4.78;;;;;;;20.94;53.65;102986.25;5027134;28;20057;-81
2021/09/22 07:49:39;;;;;;;11.27;5.88;;;;;;;21.06;53.14;102985.59;5045130;28;20076;-80
2021/09/22 07:52:04;;;;;;;15.68;5.18;;;;;;;21.09;52.91;102982.78;5035854;28;20041;-80
2021/09/22 07:54:30;;;;;;;11.55;5.20;;;;;;;21.17;52.93;102989.53;5004636;28;20045;-80
2021/09/22 07:56:55;;;;;;;12.75;4.47;;;;;;;21.41;52.48;102979.38;5020517;28;20402;-80
2021/09/22 07:59:21;;;;;;;8.90;4.57;;;;;;;21.54;51.90;102980.50;5000530;28;20040;-80
2021/09/22 08:01:46;;;;;;;10.30;5.13;;;;;;;21.75;51.00;102969.59;5034254;28;20229;-80
2021/09/22 08:04:11;;;;;;;10.07;4.00;;;;;;;21.85;50.91;102965.50;5037571;28;20037;-80
2021/09/22 08:06:37;;;;;;;10.27;5.35;;;;;;;22.16;50.02;102974.47;5016962;28;20044;-80
2021/09/22 08:09:02;;;;;;;11.13;5.13;;;;;;;22.40;49.15;102974.91;5016364;28;20241;-80
2021/09/22 08:11:28;;;;;;;7.60;5.28;;;;;;;22.55;48.64;102963.31;5017555;28;20040;-80
2021/09/22 08:13:53;;;;;;;6.07;4.22;;;;;;;;;;5024745;28;20053;-81
2021/09/22 08:16:18;;;;;;;6.83;3.80;;;;;;;22.88;47.59;102964.13;5022604;28;20190;-80
2021/09/22 08:18:46;;;;;;;8.68;3.65;;;;;;;23.12;47.09;102972.50;5016519;28;20028;-80
2021/09/22 08:21:14;;;;;;;5.47;3.33;;;;;;;23.24;46.83;102970.91;5020154;28;20025;-80
2021/09/22 08:23:40;;;;;;;5.57;3.72;;;;;;;23.21;46.82;102973.75;5023619;28;20330;-81
2021/09/22 08:26:06;;;;;;;5.93;3.80;;;;;;;23.29;46.70;102975.00;5032562;28;20112;-81
2021/09/22 08:28:32;;;;;;;7.32;3.22;;;;;;;23.44;46.09;102972.34;5028975;28;20044;-80
2021/09/22 08:30:57;;;;;;;5.97;3.92;;;;;;;23.29;46.34;102977.69;5027277;28;20342;-81
2021/09/22 08:33:23;;;;;;;11.90;4.90;;;;;;;23.36;46.42;102968.34;5017457;28;20040;-80
2021/09/22 08:35:48;;;;;;;5.90;3.40;;;;;;;23.56;45.76;102961.75;5019461;28;20021;-81
2021/09/22 08:38:13;;;;;;;4.68;3.50;;;;;;;23.95;44.77;102956.66;4999793;28;20033;-80
2021/09/22 08:40:39;;;;;;;5.97;3.65;;;;;;;23.96;44.58;102966.44;4998324;28;20059;-81
2021/09/22 08:43:04;;;;;;;3.88;3.22;;;;;;;24.21;44.10;102968.34;5037113;28;20241;-81
2021/09/22 08:45:30;;;;;;;7.40;4.75;;;;;;;24.84;42.68;102976.75;5001216;28;20293;-81
2021/09/22 08:47:56;;;;;;;4.13;3.08;;;;;;;25.34;41.78;102971.56;4984542;28;20036;-81
2021/09/22 08:50:21;;;;;;;5.35;3.38;;;;;;;25.49;40.99;102978.53;4991844;28;20029;-81
2021/09/22 08:52:48;;;;;;;8.65;3.70;;;;;;;25.46;41.09;102974.22;5001555;28;20048;-81
2021/09/22 08:55:14;;;;;;;6.85;3.35;;;;;;;25.62;40.83;102974.00;5017503;28;20029;-81
2021/09/22 08:57:39;;;;;;;6.32;3.58;;;;;;;25.28;41.49;102981.75;5001166;28;20041;-81
2021/09/22 09:00:06;;;;;;;10.20;3.38;;;;;;;25.03;41.96;102976.34;5035480;28;20049;-82
2021/09/22 09:02:45;;;;;;;3.70;3.25;;;;;;;25.44;40.98;102986.91;4999420;28;20033;-81
2021/09/22 09:05:15;;;;;;;5.30;3.15;;;;;;;25.92;39.95;102977.28;4998717;28;20056;-82
2021/09/22 09:07:58;;;;;;;4.82;3.40;;;;;;;25.73;40.38;102978.59;4984585;28;20029;-81
2021/09/22 09:10:33;;;;;;;7.82;3.45;;;;;;;25.53;40.87;102976.50;5017254;28;20154;-81
2021/09/22 09:13:05;;;;;;;9.05;3.47;;;;;;;25.53;40.83;102979.19;4985293;28;20071;-81
2021/09/22 09:15:39;;;;;;;4.57;2.75;;;;;;;25.93;40.09;102970.97;5003238;28;20056;-81
2021/09/22 09:18:17;;;;;;;6.55;3.38;;;;;;;26.16;39.63;102978.22;4999981;28;20037;-81
2021/09/22 09:20:46;;;;;;;4.43;3.30;;;;;;;26.48;38.77;102977.63;5000929;28;20037;-81
2021/09/22 09:23:15;;;;;;;4.60;3.17;;;;;;;27.24;37.12;102983.50;5000194;28;20053;-81
2021/09/22 09:25:55;;;;;;;4.30;3.30;;;;;;;27.51;36.89;102969.72;4984823;28;20025;-81
2021/09/22 09:28:22;;;;;;;5.43;3.85;;;;;;;27.54;36.73;102972.19;5001646;28;20252;-81
2021/09/22 09:30:49;;;;;;;3.47;3.13;;;;;;;26.44;38.64;102966.25;5016588;28;20036;-81
2021/09/22 09:33:37;;;;;;;8.10;3.15;;;;;;;25.73;40.12;102969.72;5000346;28;20101;-81
2021/09/22 09:36:19;;;;;;;4.88;3.95;;;;;;;25.75;40.12;102959.72;5016797;28;20063;-81
2021/09/22 09:39:14;;;;;;;3.33;3.00;;;;;;;25.95;40.08;102960.97;5017637;28;20123;-81
2021/09/22 09:41:42;;;;;;;4.95;3.10;;;;;;;26.12;39.49;102955.22;5017712;28;20056;-81
2021/09/22 09:44:12;;;;;;;;;;;;;;;26.31;39.55;102960.09;5000098;28;20041;-81
2021/09/22 09:46:37;;;;;;;2.67;2.47;;;;;;;26.70;38.84;102947.31;5016118;28;19920;-81
2021/09/22 09:49:20;;;;;;;5.13;2.30;;;;;;;27.04;38.40;102954.63;4999967;28;20034;-81
2021/09/22 09:51:55;;;;;;;2.30;2.10;;;;;;;27.12;38.13;102945.00;4999993;28;20041;-81
2021/09/22 09:54:24;;;;;;;3.97;2.25;;;;;;;27.10;38.13;102949.59;4998493;28;20037;-81
2021/09/22 09:56:51;;;;;;;2.35;2.15;;;;;;;27.13;37.71;102954.75;5016493;28;21099;-81
2021/09/22 09:59:18;;;;;;;1.75;1.65;;;;;;;27.36;37.25;102954.78;5018091;28;20044;-81
2021/09/22 10:01:45;;;;;;;2.50;2.10;;;;;;;27.57;37.02;102949.53;4987091;28;20030;-81
2021/09/22 10:04:13;;;;;;;5.00;2.30;;;;;;;27.95;36.26;102956.38;5004020;28;20029;-81
2021/09/22 10:06:38;;;;;;;6.28;2.08;;;;;;;28.08;36.24;102956.22;5005711;28;20025;-81
2021/09/22 10:09:04;;;;;;;2.85;2.13;;;;;;;27.88;36.17;102947.06;5013311;28;21232;-81
2021/09/22 10:11:31;;;;;;;9.05;2.85;;;;;;;28.09;36.08;102948.03;5007631;28;20042;-81
2021/09/22 10:13:56;;;;;;;6.82;2.40;;;;;;;28.14;35.89;102956.59;5038961;28;20048;-77
2021/09/22 10:16:22;;;;;;;3.20;2.22;;;;;;;27.81;36.82;102960.16;5015986;28;20033;-80
2021/09/22 10:18:48;;;;;;;6.30;2.90;;;;;;;27.87;36.36;102950.72;4994157;28;20044;-80
2021/09/22 10:21:15;;;;;;;5.95;3.20;;;;;;;28.05;36.46;102949.28;5030698;28;20034;-80
2021/09/22 10:23:42;;;;;;;4.37;2.90;;;;;;;27.83;36.73;102951.97;5010164;28;20321;-80
2021/09/22 10:26:08;;;;;;;5.32;3.42;;;;;;;28.10;36.09;102960.50;4989855;28;20225;-80
2021/09/22 10:28:42;;;;;;;10.90;3.28;;;;;;;28.08;36.20;102951.69;5007331;28;20037;-80
2021/09/22 10:31:37;;;;;;;4.55;3.50;;;;;;;27.67;37.21;102953.22;5010238;28;20029;-80
2021/09/22 10:34:03;;;;;;;9.13;3.35;;;;;;;27.72;37.17;102948.31;5009945;28;20045;-80
2021/09/22 10:36:34;;;;;;;6.53;3.20;;;;;;;27.67;36.95;102944.25;5021939;28;20041;-80
2021/09/22 10:38:59;;;;;;;7.93;3.08;;;;;;;27.51;37.19;102937.44;5011932;28;20088;-77
2021/09/22 10:41:30;;;;;;;3.63;3.00;;;;;;;27.51;37.17;102940.13;5020716;28;20046;-78
2021/09/22 10:43:56;;;;;;;9.63;3.55;;;;;;;27.44;37.17;102932.69;5001845;28;20089;-77
2021/09/22 10:46:21;;;;;;;5.70;3.05;;;;;;;27.29;37.89;102938.31;4998637;28;20321;-77
2021/09/22 10:48:50;;;;;;;9.38;3.40;;;;;;;27.20;37.96;102931.78;5012226;28;20041;-77
2021/09/22 10:51:30;;;;;;;7.30;3.05;;;;;;;27.09;37.99;102933.63;5030101;28;20263;-77
2021/09/22 10:54:09;;;;;;;5.85;2.75;;;;;;;26.84;38.85;102921.22;5006225;28;20266;-77
2021/09/22 10:56:35;;;;;;;4.95;2.90;;;;;;;26.69;38.80;102915.22;5012051;28;20391;-76
2021/09/22 10:59:05;;;;;;;6.22;3.08;;;;;;;26.46;39.51;102919.63;4994866;28;20037;-77
2021/09/22 11:01:40;;;;;;;3.92;3.00;;;;;;;25.48;41.51;102917.78;5008742;28;20033;-78
2021/09/22 11:04:09;;;;;;;2.78;2.53;;;;;;;24.69;43.40;102912.53;5033685;28;20123;-76
2021/09/22 11:09:32;;;;;;;10.23;2.85;;;;;;;24.03;45.04;102903.53;5044598;28;20350;-76
2021/09/22 11:12:01;;;;;;;3.78;2.75;;;;;;;23.76;45.53;102898.13;4997580;28;20046;-77
2021/09/22 11:14:36;;;;;;;7.57;3.00;;;;;;;23.74;45.65;102905.38;5022206;28;20029;-77
2021/09/22 11:17:15;;;;;;;5.45;2.83;;;;;;;23.58;46.09;102890.31;5022337;28;20402;-77
2021/09/22 11:19:42;;;;;;;3.88;2.85;;;;;;;23.46;46.56;102891.06;5021278;28;20034;-79
2021/09/22 11:22:21;;;;;;;11.38;3.10;;;;;;;23.46;46.62;102890.22;4998614;28;20028;-78
2021/09/22 11:24:47;;;;;;;3.65;2.88;;;;;;;23.44;46.61;102890.31;5034929;28;20040;-79